Rechercher aéroport 
image banner adimage banner adimage banner ad
image banner ad

05CA - Lost Hills Sheriff's Station

Situé à Calabasas, United States

ICAO - 05CA, IATA -

Données fournies par Airmate  

Information générale

Coordonnées: N34°8'12" W118°42'53"
Élévation : 888 feet MSL.
Variation magnétique : 14° East
Voir autres Aéroports à California

Données opérationnelles

Special qualification required
Heure actuelle UTC:
Heure actuelle locale:
Météo à : KVNY - Van Nuys ( 22 km )
METAR: KVNY 262351Z 12009KT 10SM CLR 26/17 A2992 RMK AO2 SLP121 60000 T02560172 10278 20244 58006
TAF: KVNY 262342Z 2700/2724 14008KT P6SM BKN120 FM270300 VRB03KT P6SM BKN150 FM272000 14008KT P6SM SKC
Voir NOTAMs / SUP AIP / TFR affectant cet aéroport [VIEW]
Fréquences de communication: [VIEW]

Pistes:

Coordonnées de l'aéroport

Adresse: Calabasas United States

Vue satellite de 05CA